sensor_id;sensor_type;location;lat;lon;timestamp;temperature;humidity
57564;DHT22;43400;45.926;6.724;2022-12-24T00:01:04;9.50;99.90
57564;DHT22;43400;45.926;6.724;2022-12-24T00:03:36;9.50;99.90
57564;DHT22;43400;45.926;6.724;2022-12-24T00:06:16;9.40;99.90
57564;DHT22;43400;45.926;6.724;2022-12-24T00:08:49;9.40;99.90
57564;DHT22;43400;45.926;6.724;2022-12-24T00:11:21;9.40;99.90
57564;DHT22;43400;45.926;6.724;2022-12-24T00:13:52;9.50;99.90
57564;DHT22;43400;45.926;6.724;2022-12-24T00:16:24;9.50;99.90
57564;DHT22;43400;45.926;6.724;2022-12-24T00:18:56;9.60;99.90
57564;DHT22;43400;45.926;6.724;2022-12-24T00:21:30;9.60;99.90
57564;DHT22;43400;45.926;6.724;2022-12-24T00:24:02;9.60;99.90
57564;DHT22;43400;45.926;6.724;2022-12-24T00:26:34;9.60;99.90
57564;DHT22;43400;45.926;6.724;2022-12-24T00:29:08;9.70;99.90
57564;DHT22;43400;45.926;6.724;2022-12-24T00:31:40;9.70;99.90
57564;DHT22;43400;45.926;6.724;2022-12-24T00:34:13;9.70;99.90
57564;DHT22;43400;45.926;6.724;2022-12-24T00:36:46;9.60;99.90
57564;DHT22;43400;45.926;6.724;2022-12-24T00:39:17;9.60;99.90
57564;DHT22;43400;45.926;6.724;2022-12-24T00:41:50;9.60;99.90
57564;DHT22;43400;45.926;6.724;2022-12-24T00:44:21;9.50;99.90
57564;DHT22;43400;45.926;6.724;2022-12-24T00:46:53;9.50;99.90
57564;DHT22;43400;45.926;6.724;2022-12-24T00:49:25;9.50;99.90
57564;DHT22;43400;45.926;6.724;2022-12-24T00:51:59;9.50;99.90
57564;DHT22;43400;45.926;6.724;2022-12-24T00:54:32;9.50;99.90
57564;DHT22;43400;45.926;6.724;2022-12-24T00:57:04;9.50;99.90
57564;DHT22;43400;45.926;6.724;2022-12-24T00:59:36;9.60;99.90
57564;DHT22;43400;45.926;6.724;2022-12-24T01:02:08;9.60;99.90
57564;DHT22;43400;45.926;6.724;2022-12-24T01:04:40;9.60;99.90
57564;DHT22;43400;45.926;6.724;2022-12-24T01:07:12;9.50;99.90
57564;DHT22;43400;45.926;6.724;2022-12-24T01:09:45;9.50;99.90
57564;DHT22;43400;45.926;6.724;2022-12-24T01:12:16;9.50;99.90
57564;DHT22;43400;45.926;6.724;2022-12-24T01:14:49;9.50;99.90
57564;DHT22;43400;45.926;6.724;2022-12-24T01:17:22;9.40;99.90
57564;DHT22;43400;45.926;6.724;2022-12-24T01:19:54;9.40;99.90
57564;DHT22;43400;45.926;6.724;2022-12-24T01:22:26;9.40;99.90
57564;DHT22;43400;45.926;6.724;2022-12-24T01:24:58;9.40;99.90
57564;DHT22;43400;45.926;6.724;2022-12-24T01:27:30;9.40;99.90
57564;DHT22;43400;45.926;6.724;2022-12-24T01:30:04;9.40;99.90
57564;DHT22;43400;45.926;6.724;2022-12-24T01:32:36;9.30;99.90
57564;DHT22;43400;45.926;6.724;2022-12-24T01:35:08;9.30;99.90
57564;DHT22;43400;45.926;6.724;2022-12-24T01:37:41;9.30;99.90
57564;DHT22;43400;45.926;6.724;2022-12-24T01:40:15;9.30;99.90
57564;DHT22;43400;45.926;6.724;2022-12-24T01:42:48;9.30;99.90
57564;DHT22;43400;45.926;6.724;2022-12-24T01:50:59;9.40;99.90
57564;DHT22;43400;45.926;6.724;2022-12-24T01:53:34;9.40;99.90
57564;DHT22;43400;45.926;6.724;2022-12-24T01:56:07;9.40;99.90
57564;DHT22;43400;45.926;6.724;2022-12-24T01:58:46;9.40;99.90
57564;DHT22;43400;45.926;6.724;2022-12-24T02:01:18;9.30;99.90
57564;DHT22;43400;45.926;6.724;2022-12-24T02:03:51;9.30;99.90
57564;DHT22;43400;45.926;6.724;2022-12-24T02:06:23;9.40;99.90
57564;DHT22;43400;45.926;6.724;2022-12-24T02:08:55;9.40;99.90
57564;DHT22;43400;45.926;6.724;2022-12-24T02:11:29;9.30;99.90
57564;DHT22;43400;45.926;6.724;2022-12-24T02:14:01;9.30;99.90
57564;DHT22;43400;45.926;6.724;2022-12-24T02:22:14;9.30;99.90
57564;DHT22;43400;45.926;6.724;2022-12-24T02:30:37;9.30;99.90
57564;DHT22;43400;45.926;6.724;2022-12-24T02:33:28;9.30;99.90
57564;DHT22;43400;45.926;6.724;2022-12-24T02:36:12;9.30;99.90
57564;DHT22;43400;45.926;6.724;2022-12-24T02:39:12;9.30;99.90
57564;DHT22;43400;45.926;6.724;2022-12-24T02:41:49;9.20;99.90
57564;DHT22;43400;45.926;6.724;2022-12-24T02:44:26;9.30;99.90
57564;DHT22;43400;45.926;6.724;2022-12-24T02:46:59;9.30;99.90
57564;DHT22;43400;45.926;6.724;2022-12-24T02:49:31;9.30;99.90
57564;DHT22;43400;45.926;6.724;2022-12-24T02:52:03;9.30;99.90
57564;DHT22;43400;45.926;6.724;2022-12-24T02:54:35;9.30;99.90
57564;DHT22;43400;45.926;6.724;2022-12-24T02:57:20;9.30;99.90
57564;DHT22;43400;45.926;6.724;2022-12-24T03:08:31;9.20;99.90
57564;DHT22;43400;45.926;6.724;2022-12-24T03:11:11;9.20;99.90
57564;DHT22;43400;45.926;6.724;2022-12-24T03:13:43;9.20;99.90
57564;DHT22;43400;45.926;6.724;2022-12-24T03:16:23;9.10;99.90
57564;DHT22;43400;45.926;6.724;2022-12-24T03:18:58;9.10;99.90
57564;DHT22;43400;45.926;6.724;2022-12-24T03:21:34;9.10;99.90
57564;DHT22;43400;45.926;6.724;2022-12-24T03:24:09;9.10;99.90
57564;DHT22;43400;45.926;6.724;2022-12-24T03:26:43;9.10;99.90
57564;DHT22;43400;45.926;6.724;2022-12-24T03:29:16;9.10;99.90
57564;DHT22;43400;45.926;6.724;2022-12-24T03:31:52;9.10;99.90
57564;DHT22;43400;45.926;6.724;2022-12-24T03:34:23;9.00;99.90
57564;DHT22;43400;45.926;6.724;2022-12-24T03:36:56;9.00;99.90
57564;DHT22;43400;45.926;6.724;2022-12-24T03:39:28;9.10;99.90
57564;DHT22;43400;45.926;6.724;2022-12-24T03:41:59;9.10;99.90
57564;DHT22;43400;45.926;6.724;2022-12-24T03:44:31;9.10;99.90
57564;DHT22;43400;45.926;6.724;2022-12-24T03:47:03;9.10;99.90
57564;DHT22;43400;45.926;6.724;2022-12-24T03:49:35;9.00;99.90
57564;DHT22;43400;45.926;6.724;2022-12-24T03:52:06;9.00;99.90
57564;DHT22;43400;45.926;6.724;2022-12-24T03:54:38;9.00;99.90
57564;DHT22;43400;45.926;6.724;2022-12-24T03:57:10;9.00;99.90
57564;DHT22;43400;45.926;6.724;2022-12-24T03:59:41;9.00;99.90
57564;DHT22;43400;45.926;6.724;2022-12-24T04:02:16;9.00;99.90
57564;DHT22;43400;45.926;6.724;2022-12-24T04:04:48;9.00;99.90
57564;DHT22;43400;45.926;6.724;2022-12-24T04:07:20;9.10;99.90
57564;DHT22;43400;45.926;6.724;2022-12-24T04:09:52;9.10;99.90
57564;DHT22;43400;45.926;6.724;2022-12-24T04:12:23;9.10;99.90
57564;DHT22;43400;45.926;6.724;2022-12-24T04:14:55;9.00;99.90
57564;DHT22;43400;45.926;6.724;2022-12-24T04:17:27;8.90;99.90
57564;DHT22;43400;45.926;6.724;2022-12-24T04:19:59;8.90;99.90
57564;DHT22;43400;45.926;6.724;2022-12-24T04:22:31;8.90;99.90
57564;DHT22;43400;45.926;6.724;2022-12-24T04:25:03;9.00;99.90
57564;DHT22;43400;45.926;6.724;2022-12-24T04:27:34;9.00;99.90
57564;DHT22;43400;45.926;6.724;2022-12-24T04:30:06;9.00;99.90
57564;DHT22;43400;45.926;6.724;2022-12-24T04:32:38;9.00;99.90
57564;DHT22;43400;45.926;6.724;2022-12-24T04:35:10;9.00;99.90
57564;DHT22;43400;45.926;6.724;2022-12-24T04:37:41;9.00;99.90
57564;DHT22;43400;45.926;6.724;2022-12-24T04:40:13;9.10;99.90
57564;DHT22;43400;45.926;6.724;2022-12-24T04:42:45;9.00;99.90
57564;DHT22;43400;45.926;6.724;2022-12-24T04:45:17;9.00;99.90
57564;DHT22;43400;45.926;6.724;2022-12-24T04:47:49;9.00;99.90
57564;DHT22;43400;45.926;6.724;2022-12-24T04:50:21;9.00;99.90
57564;DHT22;43400;45.926;6.724;2022-12-24T04:52:53;9.00;99.90
57564;DHT22;43400;45.926;6.724;2022-12-24T04:55:25;9.00;99.90
57564;DHT22;43400;45.926;6.724;2022-12-24T04:57:56;8.90;99.90
57564;DHT22;43400;45.926;6.724;2022-12-24T05:00:28;8.90;99.90
57564;DHT22;43400;45.926;6.724;2022-12-24T05:03:00;8.90;99.90
57564;DHT22;43400;45.926;6.724;2022-12-24T05:05:31;8.90;99.90
57564;DHT22;43400;45.926;6.724;2022-12-24T05:08:03;8.80;99.90
57564;DHT22;43400;45.926;6.724;2022-12-24T05:10:35;8.80;99.90
57564;DHT22;43400;45.926;6.724;2022-12-24T05:13:07;8.80;99.90
57564;DHT22;43400;45.926;6.724;2022-12-24T05:15:38;8.80;99.90
57564;DHT22;43400;45.926;6.724;2022-12-24T05:18:10;8.80;99.90
57564;DHT22;43400;45.926;6.724;2022-12-24T05:20:42;8.80;99.90
57564;DHT22;43400;45.926;6.724;2022-12-24T05:23:18;8.80;99.90
57564;DHT22;43400;45.926;6.724;2022-12-24T05:25:50;8.80;99.90
57564;DHT22;43400;45.926;6.724;2022-12-24T05:28:23;8.80;99.90
57564;DHT22;43400;45.926;6.724;2022-12-24T05:30:55;8.80;99.90
57564;DHT22;43400;45.926;6.724;2022-12-24T05:33:27;8.90;99.90
57564;DHT22;43400;45.926;6.724;2022-12-24T05:35:59;8.90;99.90
57564;DHT22;43400;45.926;6.724;2022-12-24T05:38:30;8.90;99.90
57564;DHT22;43400;45.926;6.724;2022-12-24T05:41:02;8.90;99.90
57564;DHT22;43400;45.926;6.724;2022-12-24T05:43:35;8.90;99.90
57564;DHT22;43400;45.926;6.724;2022-12-24T05:46:09;8.90;99.90
57564;DHT22;43400;45.926;6.724;2022-12-24T05:48:41;8.80;99.90
57564;DHT22;43400;45.926;6.724;2022-12-24T05:51:14;8.80;99.90
57564;DHT22;43400;45.926;6.724;2022-12-24T05:53:46;8.80;99.90
57564;DHT22;43400;45.926;6.724;2022-12-24T05:56:20;8.80;99.90
57564;DHT22;43400;45.926;6.724;2022-12-24T05:58:53;8.80;99.90
57564;DHT22;43400;45.926;6.724;2022-12-24T06:01:25;8.80;99.90
57564;DHT22;43400;45.926;6.724;2022-12-24T06:03:57;8.80;99.90
57564;DHT22;43400;45.926;6.724;2022-12-24T06:06:29;8.90;99.90
57564;DHT22;43400;45.926;6.724;2022-12-24T06:09:01;8.80;99.90
57564;DHT22;43400;45.926;6.724;2022-12-24T06:11:32;8.80;99.90
57564;DHT22;43400;45.926;6.724;2022-12-24T06:14:04;8.80;99.90
57564;DHT22;43400;45.926;6.724;2022-12-24T06:16:36;8.80;99.90
57564;DHT22;43400;45.926;6.724;2022-12-24T06:19:07;8.80;99.90
57564;DHT22;43400;45.926;6.724;2022-12-24T06:21:39;8.80;99.90
57564;DHT22;43400;45.926;6.724;2022-12-24T06:24:10;8.80;99.90
57564;DHT22;43400;45.926;6.724;2022-12-24T06:26:42;8.80;99.90
57564;DHT22;43400;45.926;6.724;2022-12-24T06:29:14;8.80;99.90
57564;DHT22;43400;45.926;6.724;2022-12-24T06:31:46;8.70;99.90
57564;DHT22;43400;45.926;6.724;2022-12-24T06:34:17;8.80;99.90
57564;DHT22;43400;45.926;6.724;2022-12-24T06:36:49;8.80;99.90
57564;DHT22;43400;45.926;6.724;2022-12-24T06:39:21;8.80;99.90
57564;DHT22;43400;45.926;6.724;2022-12-24T06:41:52;8.80;99.90
57564;DHT22;43400;45.926;6.724;2022-12-24T06:44:24;8.80;99.90
57564;DHT22;43400;45.926;6.724;2022-12-24T06:46:56;8.80;99.90
57564;DHT22;43400;45.926;6.724;2022-12-24T06:49:28;8.70;99.90
57564;DHT22;43400;45.926;6.724;2022-12-24T06:51:59;8.70;99.90
57564;DHT22;43400;45.926;6.724;2022-12-24T06:54:31;8.70;99.90
57564;DHT22;43400;45.926;6.724;2022-12-24T06:57:03;8.70;99.90
57564;DHT22;43400;45.926;6.724;2022-12-24T06:59:35;8.70;99.90
57564;DHT22;43400;45.926;6.724;2022-12-24T07:02:08;8.70;99.90
57564;DHT22;43400;45.926;6.724;2022-12-24T07:04:40;8.70;99.90
57564;DHT22;43400;45.926;6.724;2022-12-24T07:07:11;8.70;99.90
57564;DHT22;43400;45.926;6.724;2022-12-24T07:09:43;8.70;99.90
57564;DHT22;43400;45.926;6.724;2022-12-24T07:12:14;8.70;99.90
57564;DHT22;43400;45.926;6.724;2022-12-24T07:14:46;8.70;99.90
57564;DHT22;43400;45.926;6.724;2022-12-24T07:17:18;8.70;99.90
57564;DHT22;43400;45.926;6.724;2022-12-24T07:19:49;8.70;99.90
57564;DHT22;43400;45.926;6.724;2022-12-24T07:22:21;8.70;99.90
57564;DHT22;43400;45.926;6.724;2022-12-24T07:24:53;8.70;99.90
57564;DHT22;43400;45.926;6.724;2022-12-24T07:27:24;8.70;99.90
57564;DHT22;43400;45.926;6.724;2022-12-24T07:29:56;8.80;99.90
57564;DHT22;43400;45.926;6.724;2022-12-24T07:32:28;8.80;99.90
57564;DHT22;43400;45.926;6.724;2022-12-24T07:35:00;8.70;99.90
57564;DHT22;43400;45.926;6.724;2022-12-24T07:37:31;8.70;99.90
57564;DHT22;43400;45.926;6.724;2022-12-24T07:40:03;8.80;99.90
57564;DHT22;43400;45.926;6.724;2022-12-24T07:42:35;8.80;99.90
57564;DHT22;43400;45.926;6.724;2022-12-24T07:45:07;8.80;99.90
57564;DHT22;43400;45.926;6.724;2022-12-24T07:47:39;8.80;99.90
57564;DHT22;43400;45.926;6.724;2022-12-24T07:50:11;8.80;99.90
57564;DHT22;43400;45.926;6.724;2022-12-24T07:52:43;8.80;99.90
57564;DHT22;43400;45.926;6.724;2022-12-24T07:55:14;8.80;99.90
57564;DHT22;43400;45.926;6.724;2022-12-24T07:57:46;8.80;99.90
57564;DHT22;43400;45.926;6.724;2022-12-24T08:00:18;8.80;99.90
57564;DHT22;43400;45.926;6.724;2022-12-24T08:02:50;8.80;99.90
57564;DHT22;43400;45.926;6.724;2022-12-24T08:05:22;8.80;99.90
57564;DHT22;43400;45.926;6.724;2022-12-24T08:07:54;8.80;99.90
57564;DHT22;43400;45.926;6.724;2022-12-24T08:10:26;8.80;99.90
57564;DHT22;43400;45.926;6.724;2022-12-24T08:12:57;8.80;99.90
57564;DHT22;43400;45.926;6.724;2022-12-24T08:15:29;8.80;99.90
57564;DHT22;43400;45.926;6.724;2022-12-24T08:18:02;8.80;99.90
57564;DHT22;43400;45.926;6.724;2022-12-24T08:20:36;8.90;99.90
57564;DHT22;43400;45.926;6.724;2022-12-24T08:23:08;8.90;99.90
57564;DHT22;43400;45.926;6.724;2022-12-24T08:25:47;8.90;99.90
57564;DHT22;43400;45.926;6.724;2022-12-24T08:28:19;8.80;99.90
57564;DHT22;43400;45.926;6.724;2022-12-24T08:30:51;8.80;99.90
57564;DHT22;43400;45.926;6.724;2022-12-24T08:33:23;8.80;99.90
57564;DHT22;43400;45.926;6.724;2022-12-24T08:35:55;8.90;99.90
57564;DHT22;43400;45.926;6.724;2022-12-24T08:38:27;8.80;99.90
57564;DHT22;43400;45.926;6.724;2022-12-24T08:40:58;8.80;99.90
57564;DHT22;43400;45.926;6.724;2022-12-24T08:43:30;8.80;99.90
57564;DHT22;43400;45.926;6.724;2022-12-24T08:46:03;8.80;99.90
57564;DHT22;43400;45.926;6.724;2022-12-24T08:48:36;8.90;99.90
57564;DHT22;43400;45.926;6.724;2022-12-24T08:51:09;8.90;99.90
57564;DHT22;43400;45.926;6.724;2022-12-24T08:53:41;8.90;99.90
57564;DHT22;43400;45.926;6.724;2022-12-24T08:56:13;8.90;99.90
57564;DHT22;43400;45.926;6.724;2022-12-24T08:58:45;9.00;99.90
57564;DHT22;43400;45.926;6.724;2022-12-24T09:01:18;9.00;99.90
57564;DHT22;43400;45.926;6.724;2022-12-24T09:03:50;9.00;99.90
57564;DHT22;43400;45.926;6.724;2022-12-24T09:06:22;9.00;99.90
57564;DHT22;43400;45.926;6.724;2022-12-24T09:08:54;9.10;99.90
57564;DHT22;43400;45.926;6.724;2022-12-24T09:11:25;9.10;99.90
57564;DHT22;43400;45.926;6.724;2022-12-24T09:13:57;9.10;99.90
57564;DHT22;43400;45.926;6.724;2022-12-24T09:16:29;9.10;99.90
57564;DHT22;43400;45.926;6.724;2022-12-24T09:19:00;9.10;99.90
57564;DHT22;43400;45.926;6.724;2022-12-24T09:21:32;9.20;99.90
57564;DHT22;43400;45.926;6.724;2022-12-24T09:24:04;9.20;99.90
57564;DHT22;43400;45.926;6.724;2022-12-24T09:26:36;9.20;99.90
57564;DHT22;43400;45.926;6.724;2022-12-24T09:29:09;9.20;99.90
57564;DHT22;43400;45.926;6.724;2022-12-24T09:31:41;9.20;99.90
57564;DHT22;43400;45.926;6.724;2022-12-24T09:34:13;9.20;99.90
57564;DHT22;43400;45.926;6.724;2022-12-24T09:36:45;9.20;99.90
57564;DHT22;43400;45.926;6.724;2022-12-24T09:39:17;9.30;99.90
57564;DHT22;43400;45.926;6.724;2022-12-24T09:47:24;9.40;99.90
57564;DHT22;43400;45.926;6.724;2022-12-24T09:49:59;9.40;99.90
57564;DHT22;43400;45.926;6.724;2022-12-24T09:52:38;9.40;99.90
57564;DHT22;43400;45.926;6.724;2022-12-24T09:57:59;9.50;99.90
57564;DHT22;43400;45.926;6.724;2022-12-24T10:00:35;9.60;99.90
57564;DHT22;43400;45.926;6.724;2022-12-24T10:03:17;9.60;99.90
57564;DHT22;43400;45.926;6.724;2022-12-24T10:05:56;9.60;99.90
57564;DHT22;43400;45.926;6.724;2022-12-24T10:17:12;10.10;99.90
57564;DHT22;43400;45.926;6.724;2022-12-24T10:20:38;10.10;99.90
57564;DHT22;43400;45.926;6.724;2022-12-24T10:23:18;10.20;99.90
57564;DHT22;43400;45.926;6.724;2022-12-24T10:28:35;10.50;99.90
57564;DHT22;43400;45.926;6.724;2022-12-24T10:31:09;10.50;99.90
57564;DHT22;43400;45.926;6.724;2022-12-24T10:33:44;10.50;99.90
57564;DHT22;43400;45.926;6.724;2022-12-24T10:36:19;10.50;99.90
57564;DHT22;43400;45.926;6.724;2022-12-24T10:38:51;10.50;99.90
57564;DHT22;43400;45.926;6.724;2022-12-24T10:41:25;10.60;99.90
57564;DHT22;43400;45.926;6.724;2022-12-24T10:43:58;10.70;99.90
57564;DHT22;43400;45.926;6.724;2022-12-24T10:46:38;10.80;99.90
57564;DHT22;43400;45.926;6.724;2022-12-24T10:49:47;10.80;99.90
57564;DHT22;43400;45.926;6.724;2022-12-24T10:52:21;10.90;99.90
57564;DHT22;43400;45.926;6.724;2022-12-24T10:55:06;10.90;99.90
57564;DHT22;43400;45.926;6.724;2022-12-24T10:57:38;11.00;99.90
57564;DHT22;43400;45.926;6.724;2022-12-24T11:00:22;11.10;99.90
57564;DHT22;43400;45.926;6.724;2022-12-24T11:06:01;11.10;99.90
57564;DHT22;43400;45.926;6.724;2022-12-24T11:08:34;11.10;99.90
57564;DHT22;43400;45.926;6.724;2022-12-24T11:11:17;11.20;99.90
57564;DHT22;43400;45.926;6.724;2022-12-24T11:16:28;11.20;99.90
57564;DHT22;43400;45.926;6.724;2022-12-24T11:19:03;11.30;99.90
57564;DHT22;43400;45.926;6.724;2022-12-24T11:21:38;11.30;99.90
57564;DHT22;43400;45.926;6.724;2022-12-24T11:24:25;11.40;99.90
57564;DHT22;43400;45.926;6.724;2022-12-24T11:35:45;11.50;99.90
57564;DHT22;43400;45.926;6.724;2022-12-24T11:38:24;11.50;99.90
57564;DHT22;43400;45.926;6.724;2022-12-24T11:43:36;11.60;99.90
57564;DHT22;43400;45.926;6.724;2022-12-24T11:46:18;11.60;99.90
57564;DHT22;43400;45.926;6.724;2022-12-24T11:49:26;11.60;99.90
57564;DHT22;43400;45.926;6.724;2022-12-24T11:55:12;11.70;99.90
57564;DHT22;43400;45.926;6.724;2022-12-24T11:57:52;11.80;99.90
57564;DHT22;43400;45.926;6.724;2022-12-24T12:00:27;11.90;99.90
57564;DHT22;43400;45.926;6.724;2022-12-24T12:03:01;12.00;99.90
57564;DHT22;43400;45.926;6.724;2022-12-24T12:05:34;12.10;99.90
57564;DHT22;43400;45.926;6.724;2022-12-24T12:08:18;12.20;99.90
57564;DHT22;43400;45.926;6.724;2022-12-24T12:10:52;12.40;99.90
57564;DHT22;43400;45.926;6.724;2022-12-24T12:13:30;12.50;99.90
57564;DHT22;43400;45.926;6.724;2022-12-24T12:19:03;12.60;99.90
57564;DHT22;43400;45.926;6.724;2022-12-24T12:21:43;12.70;99.90
57564;DHT22;43400;45.926;6.724;2022-12-24T12:24:28;12.80;99.90
57564;DHT22;43400;45.926;6.724;2022-12-24T12:27:30;12.70;99.90
57564;DHT22;43400;45.926;6.724;2022-12-24T12:30:15;12.60;99.90
57564;DHT22;43400;45.926;6.724;2022-12-24T12:35:27;12.80;99.90
57564;DHT22;43400;45.926;6.724;2022-12-24T12:38:04;13.70;99.90
57564;DHT22;43400;45.926;6.724;2022-12-24T12:41:03;15.10;99.90
57564;DHT22;43400;45.926;6.724;2022-12-24T12:52:18;17.80;91.90
57564;DHT22;43400;45.926;6.724;2022-12-24T12:57:38;20.20;78.30
57564;DHT22;43400;45.926;6.724;2022-12-24T13:00:15;19.60;78.10
57564;DHT22;43400;45.926;6.724;2022-12-24T13:09:19;18.20;79.80
57564;DHT22;43400;45.926;6.724;2022-12-24T13:15:06;17.10;84.70
57564;DHT22;43400;45.926;6.724;2022-12-24T13:20:49;16.30;89.80
57564;DHT22;43400;45.926;6.724;2022-12-24T13:23:23;15.90;91.10
57564;DHT22;43400;45.926;6.724;2022-12-24T13:25:57;15.60;91.60
57564;DHT22;43400;45.926;6.724;2022-12-24T13:28:34;15.40;92.20
57564;DHT22;43400;45.926;6.724;2022-12-24T13:33:51;15.00;93.80
57564;DHT22;43400;45.926;6.724;2022-12-24T13:36:23;14.90;93.30
57564;DHT22;43400;45.926;6.724;2022-12-24T13:38:55;14.80;93.50
57564;DHT22;43400;45.926;6.724;2022-12-24T13:46:57;14.50;98.00
57564;DHT22;43400;45.926;6.724;2022-12-24T13:57:36;13.80;99.90
57564;DHT22;43400;45.926;6.724;2022-12-24T14:03:02;13.60;99.90
57564;DHT22;43400;45.926;6.724;2022-12-24T14:05:44;13.50;99.90
57564;DHT22;43400;45.926;6.724;2022-12-24T14:11:20;13.50;99.90
57564;DHT22;43400;45.926;6.724;2022-12-24T14:14:08;13.50;99.90
57564;DHT22;43400;45.926;6.724;2022-12-24T14:16:50;13.50;99.90
57564;DHT22;43400;45.926;6.724;2022-12-24T14:19:25;13.60;99.90
57564;DHT22;43400;45.926;6.724;2022-12-24T14:22:02;13.60;99.90
57564;DHT22;43400;45.926;6.724;2022-12-24T14:24:39;13.60;99.90
57564;DHT22;43400;45.926;6.724;2022-12-24T14:27:23;13.50;99.90
57564;DHT22;43400;45.926;6.724;2022-12-24T14:30:26;13.40;99.90
57564;DHT22;43400;45.926;6.724;2022-12-24T14:32:56;13.40;99.90
57564;DHT22;43400;45.926;6.724;2022-12-24T14:35:38;13.30;99.90
57564;DHT22;43400;45.926;6.724;2022-12-24T14:38:15;13.20;99.90
57564;DHT22;43400;45.926;6.724;2022-12-24T14:41:06;13.10;99.90
57564;DHT22;43400;45.926;6.724;2022-12-24T14:43:52;13.00;99.90
57564;DHT22;43400;45.926;6.724;2022-12-24T14:54:49;12.80;99.90
57564;DHT22;43400;45.926;6.724;2022-12-24T14:57:24;12.80;99.90
57564;DHT22;43400;45.926;6.724;2022-12-24T14:59:58;12.90;99.90
57564;DHT22;43400;45.926;6.724;2022-12-24T15:02:44;12.80;99.90
57564;DHT22;43400;45.926;6.724;2022-12-24T15:05:25;13.10;99.90
57564;DHT22;43400;45.926;6.724;2022-12-24T15:08:00;13.20;99.90
57564;DHT22;43400;45.926;6.724;2022-12-24T15:10:35;13.10;99.90
57564;DHT22;43400;45.926;6.724;2022-12-24T15:15:52;12.80;99.90
57564;DHT22;43400;45.926;6.724;2022-12-24T15:18:28;12.70;99.90
57564;DHT22;43400;45.926;6.724;2022-12-24T15:21:04;12.60;99.90
57564;DHT22;43400;45.926;6.724;2022-12-24T15:23:45;12.60;99.90
57564;DHT22;43400;45.926;6.724;2022-12-24T15:26:27;12.40;99.90
57564;DHT22;43400;45.926;6.724;2022-12-24T15:28:59;12.40;99.90
57564;DHT22;43400;45.926;6.724;2022-12-24T15:31:32;12.40;99.90
57564;DHT22;43400;45.926;6.724;2022-12-24T15:34:03;12.30;99.90
57564;DHT22;43400;45.926;6.724;2022-12-24T15:36:36;12.30;99.90
57564;DHT22;43400;45.926;6.724;2022-12-24T15:39:15;12.20;99.90
57564;DHT22;43400;45.926;6.724;2022-12-24T15:41:49;12.20;99.90
57564;DHT22;43400;45.926;6.724;2022-12-24T15:44:20;12.10;99.90
57564;DHT22;43400;45.926;6.724;2022-12-24T15:47:01;12.00;99.90
57564;DHT22;43400;45.926;6.724;2022-12-24T15:49:33;11.80;99.90
57564;DHT22;43400;45.926;6.724;2022-12-24T15:52:11;11.80;99.90
57564;DHT22;43400;45.926;6.724;2022-12-24T15:54:46;11.80;99.90
57564;DHT22;43400;45.926;6.724;2022-12-24T15:57:24;11.70;99.90
57564;DHT22;43400;45.926;6.724;2022-12-24T15:59:57;11.60;99.90
57564;DHT22;43400;45.926;6.724;2022-12-24T16:02:33;11.60;99.90
57564;DHT22;43400;45.926;6.724;2022-12-24T16:10:47;11.40;99.90
57564;DHT22;43400;45.926;6.724;2022-12-24T16:13:22;11.40;99.90
57564;DHT22;43400;45.926;6.724;2022-12-24T16:16:08;11.30;99.90
57564;DHT22;43400;45.926;6.724;2022-12-24T16:18:50;11.30;99.90
57564;DHT22;43400;45.926;6.724;2022-12-24T16:21:34;11.30;99.90
57564;DHT22;43400;45.926;6.724;2022-12-24T16:26:50;11.20;99.90
57564;DHT22;43400;45.926;6.724;2022-12-24T16:29:22;11.10;99.90
57564;DHT22;43400;45.926;6.724;2022-12-24T16:31:56;11.10;99.90
57564;DHT22;43400;45.926;6.724;2022-12-24T16:34:29;11.10;99.90
57564;DHT22;43400;45.926;6.724;2022-12-24T16:37:01;11.00;99.90
57564;DHT22;43400;45.926;6.724;2022-12-24T16:39:34;11.00;99.90
57564;DHT22;43400;45.926;6.724;2022-12-24T16:42:05;11.00;99.90
57564;DHT22;43400;45.926;6.724;2022-12-24T16:44:37;11.00;99.90
57564;DHT22;43400;45.926;6.724;2022-12-24T16:47:22;11.00;99.90
57564;DHT22;43400;45.926;6.724;2022-12-24T16:49:55;11.00;99.90
57564;DHT22;43400;45.926;6.724;2022-12-24T16:52:29;10.90;99.90
57564;DHT22;43400;45.926;6.724;2022-12-24T16:55:01;10.90;99.90
57564;DHT22;43400;45.926;6.724;2022-12-24T16:57:33;10.90;99.90
57564;DHT22;43400;45.926;6.724;2022-12-24T17:00:16;10.90;99.90
57564;DHT22;43400;45.926;6.724;2022-12-24T17:02:49;10.90;99.90
57564;DHT22;43400;45.926;6.724;2022-12-24T17:05:20;10.80;99.90
57564;DHT22;43400;45.926;6.724;2022-12-24T17:07:52;10.80;99.90
57564;DHT22;43400;45.926;6.724;2022-12-24T17:10:24;10.80;99.90
57564;DHT22;43400;45.926;6.724;2022-12-24T17:12:55;10.80;99.90
57564;DHT22;43400;45.926;6.724;2022-12-24T17:15:27;10.80;99.90
57564;DHT22;43400;45.926;6.724;2022-12-24T17:17:59;10.80;99.90
57564;DHT22;43400;45.926;6.724;2022-12-24T17:20:31;10.80;99.90
57564;DHT22;43400;45.926;6.724;2022-12-24T17:23:03;10.70;99.90
57564;DHT22;43400;45.926;6.724;2022-12-24T17:25:35;10.70;99.90
57564;DHT22;43400;45.926;6.724;2022-12-24T17:28:06;10.70;99.90
57564;DHT22;43400;45.926;6.724;2022-12-24T17:30:39;10.70;99.90
57564;DHT22;43400;45.926;6.724;2022-12-24T17:33:10;10.70;99.90
57564;DHT22;43400;45.926;6.724;2022-12-24T17:35:42;10.60;99.90
57564;DHT22;43400;45.926;6.724;2022-12-24T17:38:14;10.60;99.90
57564;DHT22;43400;45.926;6.724;2022-12-24T17:40:46;10.60;99.90
57564;DHT22;43400;45.926;6.724;2022-12-24T17:43:18;10.60;99.90
57564;DHT22;43400;45.926;6.724;2022-12-24T17:45:49;10.50;99.90
57564;DHT22;43400;45.926;6.724;2022-12-24T17:48:21;10.50;99.90
57564;DHT22;43400;45.926;6.724;2022-12-24T17:50:53;10.50;99.90
57564;DHT22;43400;45.926;6.724;2022-12-24T17:53:24;10.50;99.90
57564;DHT22;43400;45.926;6.724;2022-12-24T17:55:56;10.40;99.90
57564;DHT22;43400;45.926;6.724;2022-12-24T17:58:28;10.40;99.90
57564;DHT22;43400;45.926;6.724;2022-12-24T18:01:00;10.40;99.90
57564;DHT22;43400;45.926;6.724;2022-12-24T18:03:32;10.40;99.90
57564;DHT22;43400;45.926;6.724;2022-12-24T18:06:05;10.40;99.90
57564;DHT22;43400;45.926;6.724;2022-12-24T18:08:38;10.40;99.90
57564;DHT22;43400;45.926;6.724;2022-12-24T18:11:30;10.40;99.90
57564;DHT22;43400;45.926;6.724;2022-12-24T18:14:03;10.40;99.90
57564;DHT22;43400;45.926;6.724;2022-12-24T18:16:37;10.30;99.90
57564;DHT22;43400;45.926;6.724;2022-12-24T18:19:10;10.30;99.90
57564;DHT22;43400;45.926;6.724;2022-12-24T18:21:42;10.20;99.90
57564;DHT22;43400;45.926;6.724;2022-12-24T18:24:14;10.10;99.90
57564;DHT22;43400;45.926;6.724;2022-12-24T18:26:46;10.10;99.90
57564;DHT22;43400;45.926;6.724;2022-12-24T18:29:17;10.00;99.90
57564;DHT22;43400;45.926;6.724;2022-12-24T18:31:50;10.00;99.90
57564;DHT22;43400;45.926;6.724;2022-12-24T18:34:22;10.00;99.90
57564;DHT22;43400;45.926;6.724;2022-12-24T18:36:54;9.90;99.90
57564;DHT22;43400;45.926;6.724;2022-12-24T18:39:26;9.80;99.90
57564;DHT22;43400;45.926;6.724;2022-12-24T18:41:57;9.70;99.90